メインページ
METAR-TAF:

METAR-TAF

空港 :

サンクトペテルブルク, ロシア

プルコヴォ空港

緯度: 59-58N, 経度: 030-18E, 海抜: 4m

現時点の気象観測

当レポートは25分前の05:30(UTC)に作成
南西の風 6kt、から西/南西の間で変化する
気温 18°C
湿度 94%
気圧 1015 hPa
視程10km以上
高度1000ftの雲はほとんどない
高度2000ftの千切れ雲あり, 積乱雲.

METAR: ULLI 200530Z 22003MPS 190V250 9999 FEW010 BKN020CB 18/17 Q1015 R28L/190055 R28R/290050 NOSIG

時間: 08:55 (05:55 UTC)

予報

当レポートは55分前の05:00(UTC)に作成
予報は20日の 06時(UTC)から 21日の 06時(UTC)まで有効
西/南西の風 4kt、最大16ktの突風を伴う
視程10km以上
高度2000ftの千切れ雲あり
20日の 06時(UTC)から 20日の 09時(UTC)まで一時的に
南/南西の風 8kt、最大17ktの突風を伴う
視程: 3100m
高度700ftの千切れ雲あり
高度2000ftの千切れ雲あり, 積乱雲.
弱いにわか雨, 靄
20日の 09時(UTC)から 20日の 21時(UTC)まで一時的に
視程: 4000m
高度2500ftの千切れ雲あり, 積乱雲.
弱いにわか雨
20日の 21時(UTC)から 21日の 06時(UTC)まで一時的に
視程: 2100m
高度700ftの千切れ雲あり
高度2000ftの千切れ雲あり, 積乱雲.
弱いにわか雨

TAF: ULLI 200500Z 2006/2106 25002G08MPS 9999 BKN020 TEMPO 2006/2009 20004G09MPS 3100 -SHRA BR BKN007 BKN020CB TEMPO 2009/2021 4000 -SHRA BKN025CB TEMPO 2021/2106 2100 -SHRA BKN007 BKN020CB

4,000以上の空港の気象観測と天気予報(METAR報とTAF報)

利用可能な観測所は地図上に黄色い丸と赤い丸で示す。

丸の上にカーソルを重ねると観測所名を参照できる。

次にクリックすると気象観測と天気予報を参照できる。

マップの切り替え:黒色「×」印の緑ボタンをクリックして拡大、「-」印の緑ボタンをクリックして縮小、緑色の三角印をクリックして隣りの地図に切り替え


METAR-TAF: